Time;durP1;ratioP1;P1;durP2;ratioP2;P2;SDS_P1;SDS_P2;PMS_P1;PMS_P2;Temp;Humidity;BMP_temperature;BMP_pressure;BME280_temperature;BME280_humidity;BME280_pressure;Samples;Min_cycle;Max_cycle;Signal;HPM_P1;HPM_P2
2022/06/22 00:01:40;;;;;;;16.10;10.48;;;;;;;;;;5013478;28;20165;-57
2022/06/22 00:04:07;;;;;;;20.55;11.05;;;;;;;;;;5013241;28;20184;-57
2022/06/22 00:06:36;;;;;;;17.15;10.68;;;;;;;;;;4998209;28;20276;-58
2022/06/22 00:09:03;;;;;;;21.90;10.65;;;;;;;;;;5013160;28;20176;-55
2022/06/22 00:11:30;;;;;;;16.35;11.63;;;;;;;;;;4979712;28;20651;-58
2022/06/22 00:13:58;;;;;;;20.88;12.52;;;;;;;;;;5010725;28;20212;-55
2022/06/22 00:16:27;;;;;;;23.65;13.57;;;;;;;;;;5011806;28;20289;-56
2022/06/22 00:18:53;;;;;;;22.67;13.60;;;;;;;;;;4995452;28;20173;-56
2022/06/22 00:21:25;;;;;;;21.35;13.75;;;;;;;;;;4994445;28;20203;-54
2022/06/22 00:23:59;;;;;;;21.77;13.48;;;;;;;;;;5013353;28;20181;-57
2022/06/22 00:26:25;;;;;;;24.67;13.60;;;;;;;;;;5011443;28;20192;-55
2022/06/22 00:28:57;;;;;;;19.30;12.68;;;;;;;;;;5012855;28;20173;-56
2022/06/22 00:31:32;;;;;;;24.77;13.23;;;;;;;;;;5011244;28;20710;-57
2022/06/22 00:34:05;;;;;;;23.52;13.13;;;;;;;;;;5013077;28;20703;-56
2022/06/22 00:36:34;;;;;;;24.50;13.63;;;;;;;;;;4994778;28;20624;-56
2022/06/22 00:39:19;;;;;;;22.27;14.55;;;;;;;;;;5017937;28;20180;-56
2022/06/22 00:41:46;;;;;;;24.60;15.00;;;;;;;;;;5026612;28;20181;-58
2022/06/22 00:44:13;;;;;;;28.70;16.23;;;;;;;;;;4995305;28;20188;-56
2022/06/22 00:46:44;;;;;;;24.65;15.73;;;;;;;;;;4995201;28;20199;-56
2022/06/22 00:49:11;;;;;;;27.98;16.73;;;;;;;;;;5012785;28;20173;-57
2022/06/22 00:51:39;;;;;;;33.08;18.52;;;;;;;;;;4994606;28;20201;-58
2022/06/22 00:54:12;;;;;;;26.73;18.52;;;;;;;;;;5011515;28;20254;-59
2022/06/22 00:56:38;;;;;;;32.55;19.10;;;;;;;;;;4978131;28;20183;-56
2022/06/22 00:59:07;;;;;;;30.63;19.17;;;;;;;;;;5012009;28;20208;-58
2022/06/22 01:01:48;;;;;;;29.30;19.67;;;;;;;;;;4994995;28;20239;-58
2022/06/22 01:04:38;;;;;;;35.33;20.23;;;;;;;;;;5011357;28;20200;-57
2022/06/22 01:07:25;;;;;;;31.23;19.60;;;;;;;;;;4998792;28;20192;-56
2022/06/22 01:09:59;;;;;;;29.30;18.77;;;;;;;;;;4991267;28;20184;-57
2022/06/22 01:12:57;;;;;;;34.00;20.77;;;;;;;;;;5010824;28;20194;-54
2022/06/22 01:15:32;;;;;;;29.25;18.85;;;;;;;;;;4988678;28;20302;-55
2022/06/22 01:17:59;;;;;;;27.08;18.20;;;;;;;;;;5012289;28;20208;-56
2022/06/22 01:20:34;;;;;;;28.75;18.33;;;;;;;;;;5013206;28;20660;-57
2022/06/22 01:23:00;;;;;;;26.02;16.88;;;;;;;;;;5011122;28;20195;-57
2022/06/22 01:25:40;;;;;;;26.77;17.10;;;;;;;;;;5019226;28;20168;-57
2022/06/22 01:28:10;;;;;;;25.98;17.05;;;;;;;;;;4998114;28;20182;-57
2022/06/22 01:30:41;;;;;;;24.52;17.27;;;;;;;;;;5031281;28;20470;-56
2022/06/22 01:33:25;;;;;;;24.02;16.45;;;;;;;;;;5031538;28;20757;-56
2022/06/22 01:35:58;;;;;;;25.33;16.35;;;;;;;;;;4994267;28;20189;-55
2022/06/22 01:38:26;;;;;;;27.55;16.90;;;;;;;;;;4977864;28;20674;-57
2022/06/22 01:41:05;;;;;;;28.10;16.50;;;;;;;;;;5011902;28;20176;-57
2022/06/22 01:43:40;;;;;;;29.20;18.10;;;;;;;;;;4997944;28;20628;-57
2022/06/22 01:46:12;;;;;;;26.85;17.55;;;;;;;;;;5014429;28;20643;-57
2022/06/22 01:48:41;;;;;;;27.25;17.65;;;;;;;;;;5015612;28;20220;-57
2022/06/22 01:51:26;;;;;;;25.35;17.33;;;;;;;;;;4997753;28;20191;-58
2022/06/22 01:54:18;;;;;;;25.88;17.25;;;;;;;;;;5015223;28;20228;-56
2022/06/22 01:56:48;;;;;;;26.58;16.63;;;;;;;;;;5004173;28;20234;-57
2022/06/22 01:59:20;;;;;;;25.67;16.77;;;;;;;;;;5015227;28;20176;-57
2022/06/22 02:01:51;;;;;;;27.65;18.13;;;;;;;;;;5015572;28;20184;-59
2022/06/22 02:04:25;;;;;;;30.25;18.65;;;;;;;;;;5015894;28;20172;-58
2022/06/22 02:10:14;;;;;;;25.60;17.92;;;;;;;;;;4995437;28;20563;-57
2022/06/22 02:12:45;;;;;;;29.40;18.38;;;;;;;;;;5013178;28;20207;-57
2022/06/22 02:15:24;;;;;;;27.65;18.88;;;;;;;;;;5014762;28;20189;-56
2022/06/22 02:17:51;;;;;;;26.15;18.23;;;;;;;;;;5014603;28;20184;-58
2022/06/22 02:20:26;;;;;;;30.45;18.88;;;;;;;;;;5014374;28;20221;-58
2022/06/22 02:22:55;;;;;;;27.83;17.98;;;;;;;;;;5013985;28;20231;-58
2022/06/22 02:25:21;;;;;;;29.45;18.58;;;;;;;;;;4996790;28;20207;-58
2022/06/22 02:27:48;;;;;;;26.02;18.20;;;;;;;;;;5014288;28;20187;-59
2022/06/22 02:30:14;;;;;;;28.05;17.77;;;;;;;;;;5018980;28;20183;-58
2022/06/22 02:32:43;;;;;;;26.50;18.13;;;;;;;;;;5001300;28;20223;-58
2022/06/22 02:35:11;;;;;;;27.15;17.98;;;;;;;;;;5014832;28;20192;-56
2022/06/22 02:37:46;;;;;;;28.70;19.52;;;;;;;;;;4997415;28;20188;-60
2022/06/22 02:40:15;;;;;;;33.00;20.10;;;;;;;;;;4997387;28;20759;-58
2022/06/22 02:45:26;;;;;;;31.23;19.95;;;;;;;;;;5020857;28;20264;-56
2022/06/22 02:47:58;;;;;;;30.25;19.85;;;;;;;;;;5029136;28;20189;-58
2022/06/22 02:50:25;;;;;;;33.33;19.95;;;;;;;;;;5017593;28;20570;-58
2022/06/22 02:52:53;;;;;;;31.25;19.60;;;;;;;;;;4997838;28;20240;-58
2022/06/22 02:55:21;;;;;;;28.13;20.40;;;;;;;;;;5021439;28;20184;-59
2022/06/22 02:57:48;;;;;;;27.80;19.48;;;;;;;;;;5015763;28;20188;-59
2022/06/22 03:00:14;;;;;;;29.33;20.08;;;;;;;;;;5014885;28;20243;-57
2022/06/22 03:02:42;;;;;;;31.38;20.55;;;;;;;;;;4994857;28;20272;-58
2022/06/22 03:05:09;;;;;;;31.15;20.27;;;;;;;;;;5013146;28;20225;-58
2022/06/22 03:07:37;;;;;;;32.35;20.90;;;;;;;;;;5014452;28;20222;-56
2022/06/22 03:10:04;;;;;;;30.75;19.90;;;;;;;;;;5015099;28;20191;-57
2022/06/22 03:12:30;;;;;;;30.25;20.92;;;;;;;;;;5014295;28;20208;-56
2022/06/22 03:15:03;;;;;;;34.22;20.50;;;;;;;;;;5020852;28;20195;-56
2022/06/22 03:17:34;;;;;;;29.35;19.58;;;;;;;;;;5024123;28;20187;-57
2022/06/22 03:20:03;;;;;;;31.63;19.50;;;;;;;;;;5015683;28;20208;-58
2022/06/22 03:22:34;;;;;;;28.85;19.35;;;;;;;;;;4997471;28;20177;-58
2022/06/22 03:25:24;;;;;;;36.35;20.15;;;;;;;;;;4995830;28;20216;-57
2022/06/22 03:27:52;;;;;;;37.15;24.75;;;;;;;;;;4997849;28;20551;-56
2022/06/22 03:30:20;;;;;;;30.20;20.15;;;;;;;;;;5008953;28;20543;-57
2022/06/22 03:33:12;;;;;;;31.40;20.63;;;;;;;;;;5012797;28;20206;-61
2022/06/22 03:35:41;;;;;;;30.08;19.67;;;;;;;;;;5009829;28;20196;-57
2022/06/22 03:38:10;;;;;;;30.50;20.25;;;;;;;;;;5014407;28;20227;-56
2022/06/22 03:40:45;;;;;;;32.40;21.10;;;;;;;;;;5013979;28;20200;-55
2022/06/22 03:43:15;;;;;;;31.45;20.95;;;;;;;;;;5012214;28;20559;-57
2022/06/22 03:45:45;;;;;;;30.67;20.70;;;;;;;;;;4996419;28;20180;-57
2022/06/22 03:48:18;;;;;;;32.63;21.05;;;;;;;;;;5029133;28;20175;-56
2022/06/22 03:50:50;;;;;;;32.42;21.90;;;;;;;;;;5017845;28;20180;-56
2022/06/22 03:53:21;;;;;;;30.92;20.65;;;;;;;;;;5012170;28;20582;-57
2022/06/22 03:55:50;;;;;;;31.77;21.58;;;;;;;;;;4994589;28;20192;-59
2022/06/22 03:58:20;;;;;;;31.48;21.27;;;;;;;;;;4995474;28;20563;-57
2022/06/22 04:00:47;;;;;;;32.67;21.52;;;;;;;;;;4980955;28;20189;-60
2022/06/22 04:03:16;;;;;;;35.22;22.48;;;;;;;;;;4998902;28;20263;-57
2022/06/22 04:05:45;;;;;;;35.20;22.38;;;;;;;;;;5013499;28;20188;-59
2022/06/22 04:08:17;;;;;;;35.15;21.65;;;;;;;;;;4995142;28;21118;-58
2022/06/22 04:10:50;;;;;;;36.35;23.13;;;;;;;;;;5010795;28;20192;-59
2022/06/22 04:13:19;;;;;;;37.40;22.48;;;;;;;;;;5012647;28;20707;-56
2022/06/22 04:15:52;;;;;;;35.20;22.55;;;;;;;;;;5027544;28;20188;-57
2022/06/22 04:18:21;;;;;;;33.30;22.33;;;;;;;;;;5015631;28;20245;-57
2022/06/22 04:21:05;;;;;;;34.03;22.48;;;;;;;;;;5013093;28;20242;-58
2022/06/22 04:23:37;;;;;;;36.78;22.35;;;;;;;;;;5012236;28;20190;-58
2022/06/22 04:26:33;;;;;;;41.03;23.15;;;;;;;;;;5012539;28;20180;-55
2022/06/22 04:29:12;;;;;;;34.90;21.88;;;;;;;;;;4962972;28;20196;-56
2022/06/22 04:31:51;;;;;;;35.38;22.65;;;;;;;;;;5012335;28;20196;-57
2022/06/22 04:34:25;;;;;;;31.20;22.23;;;;;;;;;;5013189;28;20346;-58
2022/06/22 04:36:53;;;;;;;31.50;21.92;;;;;;;;;;5008239;28;20200;-58
2022/06/22 04:39:22;;;;;;;34.33;22.70;;;;;;;;;;5011844;28;20194;-57
2022/06/22 04:41:49;;;;;;;33.92;22.42;;;;;;;;;;5018358;28;20184;-57
2022/06/22 04:44:17;;;;;;;32.72;22.15;;;;;;;;;;5011423;28;20211;-57
2022/06/22 04:46:45;;;;;;;34.10;23.33;;;;;;;;;;5006337;28;20283;-56
2022/06/22 04:49:24;;;;;;;37.03;22.52;;;;;;;;;;4979959;28;20548;-58
2022/06/22 04:51:55;;;;;;;38.72;22.50;;;;;;;;;;4977939;28;20255;-58
2022/06/22 04:54:26;;;;;;;35.85;22.42;;;;;;;;;;5006986;28;20229;-57
2022/06/22 04:56:54;;;;;;;33.45;20.70;;;;;;;;;;5012661;28;20616;-57
2022/06/22 04:59:21;;;;;;;33.38;22.98;;;;;;;;;;5012583;28;20176;-57
2022/06/22 05:01:50;;;;;;;39.55;23.48;;;;;;;;;;5012203;28;20184;-56
2022/06/22 05:04:19;;;;;;;28.30;20.75;;;;;;;;;;4997881;28;20296;-57
2022/06/22 05:06:57;;;;;;;32.42;22.25;;;;;;;;;;5002762;28;20187;-57
2022/06/22 05:09:43;;;;;;;34.65;21.63;;;;;;;;;;5011657;28;20172;-55
2022/06/22 05:12:17;;;;;;;30.02;20.40;;;;;;;;;;5012229;28;20208;-58
2022/06/22 05:14:44;;;;;;;35.45;21.70;;;;;;;;;;5012997;28;20283;-56
2022/06/22 05:17:29;;;;;;;35.30;22.48;;;;;;;;;;5015453;28;20184;-63
2022/06/22 05:19:59;;;;;;;37.80;22.50;;;;;;;;;;5016566;28;20181;-55
2022/06/22 05:22:25;;;;;;;41.67;26.02;;;;;;;;;;4999133;28;20570;-55
2022/06/22 05:24:54;;;;;;;33.10;22.13;;;;;;;;;;4997178;28;20184;-55
2022/06/22 05:27:24;;;;;;;33.58;21.33;;;;;;;;;;4998364;28;20690;-56
2022/06/22 05:30:08;;;;;;;30.92;19.90;;;;;;;;;;5016983;28;20179;-57
2022/06/22 05:32:38;;;;;;;30.77;19.98;;;;;;;;;;5015614;28;20203;-55
2022/06/22 05:35:09;;;;;;;30.80;19.52;;;;;;;;;;5015200;28;20192;-58
2022/06/22 05:37:38;;;;;;;34.35;21.02;;;;;;;;;;4996735;28;20161;-56
2022/06/22 05:40:05;;;;;;;29.40;18.88;;;;;;;;;;4980272;28;20181;-58
2022/06/22 05:42:31;;;;;;;32.03;18.83;;;;;;;;;;4993421;28;20184;-57
2022/06/22 05:45:01;;;;;;;29.27;18.98;;;;;;;;;;4979691;28;20271;-56
2022/06/22 05:47:29;;;;;;;32.10;19.23;;;;;;;;;;5015117;28;20180;-54
2022/06/22 05:49:57;;;;;;;31.98;17.65;;;;;;;;;;5013912;28;20185;-56
2022/06/22 05:52:43;;;;;;;34.45;19.17;;;;;;;;;;5015929;28;20188;-57
2022/06/22 05:55:18;;;;;;;32.28;18.88;;;;;;;;;;5015499;28;20587;-55
2022/06/22 05:57:53;;;;;;;30.70;18.17;;;;;;;;;;4981600;28;20518;-58
2022/06/22 06:00:21;;;;;;;29.63;17.20;;;;;;;;;;5014776;28;20161;-57
2022/06/22 06:02:50;;;;;;;28.02;17.30;;;;;;;;;;5012433;28;20675;-59
2022/06/22 06:05:16;;;;;;;23.23;16.33;;;;;;;;;;4981923;28;20168;-59
2022/06/22 06:07:46;;;;;;;24.88;15.40;;;;;;;;;;5015523;28;20207;-59
2022/06/22 06:10:27;;;;;;;23.27;15.80;;;;;;;;;;5013634;28;20203;-59
2022/06/22 06:13:00;;;;;;;27.40;15.93;;;;;;;;;;4996381;28;20255;-58
2022/06/22 06:15:26;;;;;;;29.83;16.33;;;;;;;;;;5015060;28;20683;-58
2022/06/22 06:17:55;;;;;;;23.73;14.82;;;;;;;;;;4997263;28;20275;-59
2022/06/22 06:20:23;;;;;;;26.23;15.00;;;;;;;;;;5015227;28;20181;-58
2022/06/22 06:22:50;;;;;;;25.80;14.70;;;;;;;;;;4996406;28;20184;-59
2022/06/22 06:28:14;;;;;;;25.30;15.18;;;;;;;;;;5010310;28;20189;-58
2022/06/22 06:30:45;;;;;;;18.08;13.40;;;;;;;;;;5015664;28;20645;-57
2022/06/22 06:33:16;;;;;;;21.67;14.00;;;;;;;;;;4997878;28;20227;-57
2022/06/22 06:35:56;;;;;;;23.02;13.43;;;;;;;;;;4997412;28;20200;-57
2022/06/22 06:38:36;;;;;;;19.98;13.85;;;;;;;;;;5006363;28;20180;-58
2022/06/22 06:41:03;;;;;;;18.98;13.40;;;;;;;;;;4981004;28;20181;-58
2022/06/22 06:43:47;;;;;;;21.67;12.93;;;;;;;;;;5014435;28;20184;-56
2022/06/22 06:46:23;;;;;;;28.15;13.63;;;;;;;;;;4990612;28;20181;-57
2022/06/22 06:48:56;;;;;;;22.40;12.38;;;;;;;;;;5004788;28;20215;-59
2022/06/22 06:51:23;;;;;;;22.95;12.70;;;;;;;;;;4996238;28;20188;-58
2022/06/22 06:54:02;;;;;;;22.60;12.00;;;;;;;;;;5014830;28;20240;-60
2022/06/22 06:56:41;;;;;;;21.15;12.00;;;;;;;;;;5012668;28;20351;-59
2022/06/22 06:59:13;;;;;;;18.10;11.27;;;;;;;;;;5013519;28;20259;-58
2022/06/22 07:01:39;;;;;;;20.73;11.60;;;;;;;;;;4997444;28;20279;-58
2022/06/22 07:04:16;;;;;;;18.50;12.10;;;;;;;;;;5014456;28;20304;-55
2022/06/22 07:06:42;;;;;;;19.80;11.65;;;;;;;;;;4997249;28;20168;-56
2022/06/22 07:09:15;;;;;;;20.20;11.13;;;;;;;;;;5013098;28;20230;-57
2022/06/22 07:11:45;;;;;;;19.30;10.63;;;;;;;;;;5011497;28;20184;-58
2022/06/22 07:14:18;;;;;;;17.75;9.48;;;;;;;;;;5018340;28;20538;-56
2022/06/22 07:16:45;;;;;;;16.27;9.13;;;;;;;;;;5023799;28;20315;-58
2022/06/22 07:19:17;;;;;;;17.80;10.00;;;;;;;;;;5011026;28;20272;-57
2022/06/22 07:22:03;;;;;;;20.20;10.55;;;;;;;;;;5013075;28;20192;-59
2022/06/22 07:24:33;;;;;;;22.02;10.38;;;;;;;;;;5014542;28;20318;-58
2022/06/22 07:27:10;;;;;;;19.27;10.13;;;;;;;;;;4994342;28;20272;-60
2022/06/22 07:29:39;;;;;;;16.10;9.48;;;;;;;;;;5014125;28;20169;-58
2022/06/22 07:32:21;;;;;;;18.33;9.40;;;;;;;;;;5013926;28;20202;-58
2022/06/22 07:34:51;;;;;;;16.58;10.05;;;;;;;;;;5013772;28;20222;-59
2022/06/22 07:37:31;;;;;;;20.38;9.57;;;;;;;;;;5013071;28;20196;-57
2022/06/22 07:40:06;;;;;;;16.63;9.05;;;;;;;;;;5013237;28;20264;-57
2022/06/22 07:42:32;;;;;;;16.23;10.18;;;;;;;;;;5014369;28;20168;-56
2022/06/22 07:44:58;;;;;;;16.38;10.70;;;;;;;;;;4995255;28;20185;-56
2022/06/22 07:47:36;;;;;;;18.33;10.32;;;;;;;;;;4995031;28;20652;-57
2022/06/22 07:50:02;;;;;;;16.42;9.85;;;;;;;;;;5000569;28;20177;-58
2022/06/22 07:52:32;;;;;;;15.60;8.63;;;;;;;;;;5013499;28;20179;-57
2022/06/22 07:55:04;;;;;;;19.33;9.90;;;;;;;;;;5011575;28;20383;-57
2022/06/22 07:57:59;;;;;;;14.85;8.98;;;;;;;;;;5022417;28;20233;-56
2022/06/22 08:00:26;;;;;;;19.17;9.68;;;;;;;;;;5001993;28;20243;-58
2022/06/22 08:03:06;;;;;;;19.42;9.25;;;;;;;;;;4989640;28;20187;-60
2022/06/22 08:05:35;;;;;;;20.02;11.57;;;;;;;;;;4987066;28;20188;-58
2022/06/22 08:08:20;;;;;;;16.90;10.38;;;;;;;;;;5016333;28;20314;-57
2022/06/22 08:10:49;;;;;;;18.33;10.57;;;;;;;;;;4993687;28;20605;-60
2022/06/22 08:13:22;;;;;;;20.02;10.43;;;;;;;;;;4993251;28;20216;-58
2022/06/22 08:15:57;;;;;;;23.17;11.00;;;;;;;;;;5016958;28;20263;-58
2022/06/22 08:18:23;;;;;;;20.38;11.60;;;;;;;;;;5003883;28;20184;-57
2022/06/22 08:20:51;;;;;;;18.80;10.52;;;;;;;;;;5010103;28;20195;-56
2022/06/22 08:23:19;;;;;;;20.30;11.52;;;;;;;;;;5013379;28;20211;-57
2022/06/22 08:25:46;;;;;;;19.50;12.05;;;;;;;;;;4995709;28;20216;-57
2022/06/22 08:28:17;;;;;;;15.63;9.88;;;;;;;;;;5012517;28;20267;-56
2022/06/22 08:30:44;;;;;;;19.88;11.10;;;;;;;;;;5012375;28;20214;-57
2022/06/22 08:33:12;;;;;;;22.48;11.73;;;;;;;;;;4995265;28;20265;-55
2022/06/22 08:35:42;;;;;;;20.92;12.13;;;;;;;;;;5013395;28;20188;-54
2022/06/22 08:38:11;;;;;;;17.77;11.63;;;;;;;;;;5013089;28;20549;-53
2022/06/22 08:40:41;;;;;;;18.13;10.93;;;;;;;;;;5002122;28;20185;-56
2022/06/22 08:43:26;;;;;;;18.83;12.10;;;;;;;;;;5012708;28;20263;-57
2022/06/22 08:46:06;;;;;;;19.67;11.10;;;;;;;;;;4995399;28;20268;-55
2022/06/22 08:48:47;;;;;;;20.02;10.77;;;;;;;;;;4995465;28;20165;-57
2022/06/22 08:51:29;;;;;;;21.02;11.43;;;;;;;;;;5004927;28;20185;-55
2022/06/22 08:54:05;;;;;;;21.35;10.93;;;;;;;;;;5015683;28;20898;-56
2022/06/22 08:56:38;;;;;;;20.80;10.85;;;;;;;;;;5014645;28;20211;-55
2022/06/22 08:59:19;;;;;;;20.77;11.48;;;;;;;;;;5015271;28;20219;-59
2022/06/22 09:01:56;;;;;;;16.52;10.95;;;;;;;;;;4996041;28;20192;-58
2022/06/22 09:04:38;;;;;;;19.60;11.15;;;;;;;;;;5015959;28;20233;-55
2022/06/22 09:07:22;;;;;;;14.85;9.73;;;;;;;;;;5015245;28;20177;-54
2022/06/22 09:10:09;;;;;;;22.90;9.93;;;;;;;;;;5015318;28;20181;-55
2022/06/22 09:12:35;;;;;;;15.52;8.52;;;;;;;;;;5013698;28;20226;-53
2022/06/22 09:15:11;;;;;;;17.02;8.68;;;;;;;;;;5015699;28;20177;-52
2022/06/22 09:17:57;;;;;;;16.85;9.68;;;;;;;;;;5025911;28;20266;-55
2022/06/22 09:20:42;;;;;;;14.27;8.20;;;;;;;;;;5005449;28;20231;-53
2022/06/22 09:23:23;;;;;;;12.90;7.25;;;;;;;;;;5014007;28;20173;-55
2022/06/22 09:26:16;;;;;;;15.85;7.50;;;;;;;;;;5015066;28;20173;-51
2022/06/22 09:28:45;;;;;;;13.52;7.70;;;;;;;;;;4967025;28;20724;-52
2022/06/22 09:31:30;;;;;;;14.38;7.15;;;;;;;;;;4997275;28;20191;-53
2022/06/22 09:34:15;;;;;;;9.52;5.50;;;;;;;;;;5014775;28;20573;-55
2022/06/22 09:36:50;;;;;;;10.98;5.88;;;;;;;;;;5015195;28;20177;-56
2022/06/22 09:39:28;;;;;;;9.93;4.85;;;;;;;;;;5013066;28;20239;-58
2022/06/22 09:41:54;;;;;;;12.60;3.95;;;;;;;;;;4995711;28;20169;-58
2022/06/22 09:44:27;;;;;;;6.95;4.22;;;;;;;;;;4977705;28;20181;-57
2022/06/22 09:47:08;;;;;;;12.00;4.93;;;;;;;;;;5000634;28;20192;-58
2022/06/22 09:49:53;;;;;;;10.57;4.05;;;;;;;;;;4992583;28;20265;-57
2022/06/22 09:52:48;;;;;;;7.30;4.18;;;;;;;;;;4997483;28;20183;-57
2022/06/22 09:58:28;;;;;;;7.45;3.17;;;;;;;;;;5016938;28;20180;-56
2022/06/22 10:00:57;;;;;;;7.63;2.67;;;;;;;;;;5021853;28;20187;-57
2022/06/22 10:03:23;;;;;;;6.35;2.60;;;;;;;;;;5014431;28;20216;-57
2022/06/22 10:05:55;;;;;;;4.82;1.77;;;;;;;;;;4998100;28;20181;-58
2022/06/22 10:08:21;;;;;;;5.00;1.40;;;;;;;;;;4997799;28;20189;-57
2022/06/22 10:10:57;;;;;;;6.40;2.35;;;;;;;;;;5013906;28;20177;-59
2022/06/22 10:13:29;;;;;;;5.70;2.38;;;;;;;;;;4994137;28;20209;-57
2022/06/22 10:16:15;;;;;;;5.72;2.15;;;;;;;;;;5014068;28;20188;-59
2022/06/22 10:18:52;;;;;;;4.80;1.83;;;;;;;;;;5008576;28;20271;-57
2022/06/22 10:21:36;;;;;;;4.85;1.80;;;;;;;;;;5022710;28;20179;-56
2022/06/22 10:24:12;;;;;;;5.28;2.45;;;;;;;;;;5007846;28;20772;-57
2022/06/22 10:26:38;;;;;;;3.55;1.88;;;;;;;;;;5014379;28;20218;-56
2022/06/22 10:29:20;;;;;;;2.47;1.50;;;;;;;;;;5014123;28;20208;-56
2022/06/22 10:31:56;;;;;;;5.25;1.83;;;;;;;;;;5033054;28;20261;-57
2022/06/22 10:34:28;;;;;;;3.40;1.70;;;;;;;;;;5031845;28;20254;-57
2022/06/22 10:37:13;;;;;;;3.22;1.70;;;;;;;;;;4995249;28;20175;-58
2022/06/22 10:39:58;;;;;;;3.97;1.85;;;;;;;;;;5009739;28;20177;-58
2022/06/22 10:45:33;;;;;;;5.50;2.35;;;;;;;;;;5013635;28;20242;-57
2022/06/22 10:47:59;;;;;;;4.07;2.10;;;;;;;;;;5014971;28;20201;-57
2022/06/22 10:50:35;;;;;;;3.90;2.10;;;;;;;;;;5000125;28;20193;-57
2022/06/22 10:53:22;;;;;;;3.78;2.05;;;;;;;;;;4995091;28;20248;-56
2022/06/22 10:55:53;;;;;;;3.50;2.17;;;;;;;;;;5008458;28;20195;-57
2022/06/22 10:58:25;;;;;;;4.03;1.95;;;;;;;;;;5014280;28;20173;-57
2022/06/22 11:01:10;;;;;;;3.75;1.85;;;;;;;;;;5014147;28;20164;-54
2022/06/22 11:04:02;;;;;;;4.72;1.70;;;;;;;;;;5028549;28;20195;-54
2022/06/22 11:06:47;;;;;;;5.75;1.48;;;;;;;;;;4997756;28;20276;-57
2022/06/22 11:09:31;;;;;;;4.13;2.00;;;;;;;;;;4995082;28;20181;-58
2022/06/22 11:12:06;;;;;;;2.60;1.67;;;;;;;;;;5005771;28;20183;-56
2022/06/22 11:14:51;;;;;;;4.03;1.80;;;;;;;;;;5011682;28;20237;-58
2022/06/22 11:17:23;;;;;;;5.63;2.10;;;;;;;;;;5013849;28;20256;-57
2022/06/22 11:19:55;;;;;;;7.95;1.88;;;;;;;;;;5013201;28;20176;-58
2022/06/22 11:22:22;;;;;;;4.22;1.90;;;;;;;;;;4995496;28;20706;-57
2022/06/22 11:24:48;;;;;;;4.47;2.00;;;;;;;;;;5013697;28;20206;-59
2022/06/22 11:33:37;;;;;;;5.43;3.00;;;;;;;;;;5018197;28;20667;-57
2022/06/22 11:36:12;;;;;;;5.57;2.60;;;;;;;;;;5033068;28;20238;-58
2022/06/22 11:38:57;;;;;;;6.93;3.25;;;;;;;;;;4994656;28;20169;-56
2022/06/22 11:41:43;;;;;;;5.22;2.70;;;;;;;;;;5006569;28;20651;-58
2022/06/22 11:44:28;;;;;;;6.18;2.88;;;;;;;;;;5013692;28;20700;-57
2022/06/22 11:46:56;;;;;;;5.43;2.53;;;;;;;;;;5014195;28;20173;-57
2022/06/22 11:49:28;;;;;;;5.68;2.05;;;;;;;;;;4996417;28;20531;-57
2022/06/22 11:52:12;;;;;;;4.82;1.98;;;;;;;;;;5011887;28;20188;-56
2022/06/22 11:54:48;;;;;;;7.20;1.85;;;;;;;;;;4991726;28;20232;-56
2022/06/22 11:57:21;;;;;;;1.85;1.48;;;;;;;;;;5014646;28;20635;-58
2022/06/22 11:59:47;;;;;;;3.33;1.27;;;;;;;;;;4988330;28;20188;-60
2022/06/22 12:02:22;;;;;;;4.72;1.40;;;;;;;;;;4994734;28;20177;-57
2022/06/22 12:05:08;;;;;;;5.28;1.90;;;;;;;;;;5013469;28;20186;-56
2022/06/22 12:07:37;;;;;;;1.88;1.30;;;;;;;;;;4995395;28;20223;-56
2022/06/22 12:10:15;;;;;;;3.13;1.50;;;;;;;;;;5024288;28;20183;-56
2022/06/22 12:12:43;;;;;;;2.85;1.40;;;;;;;;;;5023986;28;20180;-54
2022/06/22 12:15:16;;;;;;;3.38;1.40;;;;;;;;;;4995768;28;20541;-57
2022/06/22 12:18:00;;;;;;;3.47;1.10;;;;;;;;;;5012277;28;20238;-56
2022/06/22 12:20:30;;;;;;;5.22;1.85;;;;;;;;;;5003481;28;20172;-57
2022/06/22 12:22:56;;;;;;;4.85;1.30;;;;;;;;;;5014121;28;20195;-56
2022/06/22 12:25:22;;;;;;;2.63;1.23;;;;;;;;;;5013135;28;20175;-56
2022/06/22 12:28:08;;;;;;;6.00;1.40;;;;;;;;;;5010241;28;20274;-58
2022/06/22 12:30:53;;;;;;;2.05;0.90;;;;;;;;;;5017706;28;20203;-55
2022/06/22 12:33:26;;;;;;;4.38;1.23;;;;;;;;;;5015087;28;20211;-52
2022/06/22 12:35:58;;;;;;;4.03;1.10;;;;;;;;;;5032677;28;20183;-51
2022/06/22 12:38:40;;;;;;;1.70;1.10;;;;;;;;;;4994377;28;20193;-57
2022/06/22 12:41:30;;;;;;;1.50;1.00;;;;;;;;;;5002352;28;20196;-55
2022/06/22 12:44:02;;;;;;;1.85;1.00;;;;;;;;;;4978888;28;20195;-55
2022/06/22 12:46:43;;;;;;;4.63;1.00;;;;;;;;;;5014965;28;20207;-55
2022/06/22 12:49:10;;;;;;;1.75;0.88;;;;;;;;;;5016255;28;20184;-56
2022/06/22 12:51:48;;;;;;;1.55;0.90;;;;;;;;;;4995670;28;20180;-54
2022/06/22 12:54:24;;;;;;;1.50;0.75;;;;;;;;;;5012322;28;20228;-54
2022/06/22 12:57:01;;;;;;;7.53;0.80;;;;;;;;;;5012328;28;20164;-55
2022/06/22 12:59:40;;;;;;;3.63;0.88;;;;;;;;;;5012064;28;20165;-58
2022/06/22 13:02:09;;;;;;;4.80;1.00;;;;;;;;;;5009733;28;20323;-56
2022/06/22 13:04:37;;;;;;;2.90;0.75;;;;;;;;;;5012669;28;20263;-55
2022/06/22 13:07:15;;;;;;;6.72;1.30;;;;;;;;;;4995596;28;20180;-56
2022/06/22 13:09:42;;;;;;;3.72;0.90;;;;;;;;;;5011360;28;20192;-57
2022/06/22 13:12:15;;;;;;;0.70;0.60;;;;;;;;;;4995707;28;20192;-57
2022/06/22 13:14:57;;;;;;;4.93;0.90;;;;;;;;;;4995172;28;20212;-52
2022/06/22 13:17:27;;;;;;;7.35;3.28;;;;;;;;;;5012920;28;20176;-55
2022/06/22 13:20:12;;;;;;;3.05;0.70;;;;;;;;;;5011631;28;20177;-54
2022/06/22 13:22:41;;;;;;;1.17;0.50;;;;;;;;;;5011822;28;20204;-57
2022/06/22 13:25:19;;;;;;;0.80;0.60;;;;;;;;;;5012702;28;20222;-54
2022/06/22 13:27:54;;;;;;;0.57;0.50;;;;;;;;;;5012162;28;20275;-57
2022/06/22 13:30:20;;;;;;;0.50;0.50;;;;;;;;;;5010695;28;20390;-60
2022/06/22 13:32:54;;;;;;;1.27;0.47;;;;;;;;;;5012042;28;20195;-55
2022/06/22 13:35:27;;;;;;;0.80;0.60;;;;;;;;;;4995348;28;20550;-59
2022/06/22 13:38:04;;;;;;;1.55;0.50;;;;;;;;;;4997398;28;20157;-59
2022/06/22 13:40:37;;;;;;;1.30;0.40;;;;;;;;;;5015234;28;20557;-56
2022/06/22 13:43:16;;;;;;;1.92;0.50;;;;;;;;;;5015366;28;20258;-57
2022/06/22 13:45:45;;;;;;;4.05;0.50;;;;;;;;;;5019647;28;20212;-58
2022/06/22 13:48:29;;;;;;;1.25;0.40;;;;;;;;;;5016107;28;20173;-56
2022/06/22 13:53:36;;;;;;;3.33;0.50;;;;;;;;;;4996568;28;20601;-57
2022/06/22 13:56:06;;;;;;;0.40;0.40;;;;;;;;;;5015741;28;20164;-55
2022/06/22 13:58:41;;;;;;;0.50;0.47;;;;;;;;;;5015232;28;20212;-56
2022/06/22 14:01:15;;;;;;;1.08;0.50;;;;;;;;;;5015429;28;20179;-55
2022/06/22 14:03:50;;;;;;;2.03;0.45;;;;;;;;;;4978691;28;20188;-56
2022/06/22 14:06:29;;;;;;;0.90;0.40;;;;;;;;;;4999654;28;20271;-57
2022/06/22 14:09:18;;;;;;;1.52;0.40;;;;;;;;;;5008857;28;20207;-54
2022/06/22 14:11:59;;;;;;;1.23;0.60;;;;;;;;;;4987833;28;20231;-57
2022/06/22 14:14:40;;;;;;;2.03;0.30;;;;;;;;;;4995659;28;20201;-55
2022/06/22 14:17:20;;;;;;;1.15;0.50;;;;;;;;;;5010605;28;20192;-57
2022/06/22 14:20:05;;;;;;;1.25;0.30;;;;;;;;;;4999194;28;20280;-57
2022/06/22 14:22:35;;;;;;;0.60;0.40;;;;;;;;;;4998258;28;20176;-55
2022/06/22 14:25:01;;;;;;;3.20;0.50;;;;;;;;;;4981895;28;20192;-54
2022/06/22 14:27:46;;;;;;;2.72;0.50;;;;;;;;;;4995969;28;20235;-52
2022/06/22 14:30:15;;;;;;;0.68;0.40;;;;;;;;;;5014484;28;20637;-57
2022/06/22 14:33:00;;;;;;;0.82;0.30;;;;;;;;;;5015137;28;20177;-57
2022/06/22 14:35:41;;;;;;;3.17;0.75;;;;;;;;;;5031932;28;20204;-57
2022/06/22 14:38:13;;;;;;;0.43;0.40;;;;;;;;;;5017578;28;20230;-56
2022/06/22 14:40:52;;;;;;;1.25;0.93;;;;;;;;;;5017080;28;20572;-56
2022/06/22 14:43:37;;;;;;;0.60;0.47;;;;;;;;;;4997163;28;20199;-58
2022/06/22 14:46:09;;;;;;;1.38;0.60;;;;;;;;;;4997286;28;20260;-54
2022/06/22 14:48:41;;;;;;;3.42;0.60;;;;;;;;;;5013455;28;20195;-58
2022/06/22 14:51:14;;;;;;;0.82;0.40;;;;;;;;;;4977754;28;20185;-60
2022/06/22 14:53:59;;;;;;;0.40;0.40;;;;;;;;;;4993723;28;20331;-56
2022/06/22 14:56:34;;;;;;;1.75;0.50;;;;;;;;;;4996214;28;20181;-63
2022/06/22 14:59:14;;;;;;;1.27;0.40;;;;;;;;;;4997366;28;20164;-56
2022/06/22 15:01:49;;;;;;;4.32;1.42;;;;;;;;;;5024878;28;20240;-55
2022/06/22 15:04:35;;;;;;;2.03;0.50;;;;;;;;;;5014629;28;20259;-56
2022/06/22 15:07:20;;;;;;;2.00;0.50;;;;;;;;;;4995165;28;20187;-56
2022/06/22 15:09:49;;;;;;;2.30;0.50;;;;;;;;;;5014194;28;20192;-57
2022/06/22 15:15:10;;;;;;;1.13;0.80;;;;;;;;;;5014137;28;20193;-57
2022/06/22 15:17:43;;;;;;;1.20;0.65;;;;;;;;;;4995894;28;20211;-59
2022/06/22 15:20:28;;;;;;;2.67;0.70;;;;;;;;;;5013118;28;20184;-58
2022/06/22 15:22:54;;;;;;;3.40;0.82;;;;;;;;;;5014026;28;20173;-56
2022/06/22 15:25:20;;;;;;;1.83;0.60;;;;;;;;;;5014065;28;20179;-57
2022/06/22 15:27:56;;;;;;;2.95;0.85;;;;;;;;;;5013427;28;20192;-58
2022/06/22 15:30:24;;;;;;;1.40;0.70;;;;;;;;;;5012914;28;20226;-56
2022/06/22 15:32:59;;;;;;;1.23;0.80;;;;;;;;;;4995708;28;20183;-58
2022/06/22 15:35:28;;;;;;;33.83;25.98;;;;;;;;;;5014606;28;20184;-57